sensor_id;sensor_type;location;lat;lon;timestamp;pressure;altitude;pressure_sealevel;temperature;humidity
11888;BME280;6003;42.756;23.130;2023-05-21T00:01:03;155389.22;;;11.56;100.00
11888;BME280;6003;42.756;23.130;2023-05-21T00:03:30;155391.91;;;11.57;100.00
11888;BME280;6003;42.756;23.130;2023-05-21T00:05:58;155373.34;;;11.50;100.00
11888;BME280;6003;42.756;23.130;2023-05-21T00:08:25;155344.25;;;11.39;100.00
11888;BME280;6003;42.756;23.130;2023-05-21T00:10:52;155349.56;;;11.41;100.00
11888;BME280;6003;42.756;23.130;2023-05-21T00:13:19;155349.56;;;11.41;100.00
11888;BME280;6003;42.756;23.130;2023-05-21T00:15:47;155344.25;;;11.39;100.00
11888;BME280;6003;42.756;23.130;2023-05-21T00:18:14;155316.53;;;11.28;100.00
11888;BME280;6003;42.756;23.130;2023-05-21T00:20:41;155319.16;;;11.29;100.00
11888;BME280;6003;42.756;23.130;2023-05-21T00:23:08;155339.00;;;11.37;100.00
11888;BME280;6003;42.756;23.130;2023-05-21T00:25:35;155353.56;;;11.42;100.00
11888;BME280;6003;42.756;23.130;2023-05-21T00:28:03;155352.19;;;11.42;100.00
11888;BME280;6003;42.756;23.130;2023-05-21T00:30:30;155373.34;;;11.50;100.00
11888;BME280;6003;42.756;23.130;2023-05-21T00:32:58;155389.22;;;11.56;100.00
11888;BME280;6003;42.756;23.130;2023-05-21T00:35:26;155393.22;;;11.58;100.00
11888;BME280;6003;42.756;23.130;2023-05-21T00:37:53;155393.22;;;11.58;100.00
11888;BME280;6003;42.756;23.130;2023-05-21T00:40:20;155391.91;;;11.57;100.00
11888;BME280;6003;42.756;23.130;2023-05-21T00:42:47;155385.28;;;11.55;100.00
11888;BME280;6003;42.756;23.130;2023-05-21T00:45:14;155383.97;;;11.54;100.00
11888;BME280;6003;42.756;23.130;2023-05-21T00:47:42;155386.59;;;11.55;100.00
11888;BME280;6003;42.756;23.130;2023-05-21T00:50:11;155361.50;;;11.45;100.00
11888;BME280;6003;42.756;23.130;2023-05-21T00:52:39;155376.03;;;11.51;100.00
11888;BME280;6003;42.756;23.130;2023-05-21T00:55:08;155389.22;;;11.56;100.00
11888;BME280;6003;42.756;23.130;2023-05-21T00:57:35;155402.47;;;11.61;100.00
11888;BME280;6003;42.756;23.130;2023-05-21T01:00:04;155405.09;;;11.62;100.00
11888;BME280;6003;42.756;23.130;2023-05-21T01:02:34;155402.47;;;11.61;100.00
11888;BME280;6003;42.756;23.130;2023-05-21T01:05:01;155394.53;;;11.58;100.00
11888;BME280;6003;42.756;23.130;2023-05-21T01:07:32;155399.84;;;11.60;100.00
11888;BME280;6003;42.756;23.130;2023-05-21T01:10:01;155397.16;;;11.59;100.00
11888;BME280;6003;42.756;23.130;2023-05-21T01:12:30;155415.69;;;11.66;100.00
11888;BME280;6003;42.756;23.130;2023-05-21T01:14:58;155399.84;;;11.60;100.00
11888;BME280;6003;42.756;23.130;2023-05-21T01:17:26;155386.59;;;11.55;100.00
11888;BME280;6003;42.756;23.130;2023-05-21T01:19:54;155378.66;;;11.52;100.00
11888;BME280;6003;42.756;23.130;2023-05-21T01:22:24;155370.72;;;11.49;100.00
11888;BME280;6003;42.756;23.130;2023-05-21T01:24:54;155357.50;;;11.44;100.00
11888;BME280;6003;42.756;23.130;2023-05-21T01:27:21;155346.94;;;11.40;100.00
11888;BME280;6003;42.756;23.130;2023-05-21T01:29:47;155344.25;;;11.39;100.00
11888;BME280;6003;42.756;23.130;2023-05-21T01:32:20;155344.25;;;11.39;100.00
11888;BME280;6003;42.756;23.130;2023-05-21T01:34:55;155358.81;;;11.44;100.00
11888;BME280;6003;42.756;23.130;2023-05-21T01:37:29;155373.34;;;11.50;100.00
11888;BME280;6003;42.756;23.130;2023-05-21T01:40:02;155394.53;;;11.58;100.00
11888;BME280;6003;42.756;23.130;2023-05-21T01:42:31;155398.53;;;11.60;100.00
11888;BME280;6003;42.756;23.130;2023-05-21T01:45:00;155407.78;;;11.63;100.00
11888;BME280;6003;42.756;23.130;2023-05-21T01:47:31;155407.78;;;11.63;100.00
11888;BME280;6003;42.756;23.130;2023-05-21T01:49:58;155421.00;;;11.68;100.00
11888;BME280;6003;42.756;23.130;2023-05-21T01:52:25;155435.56;;;11.74;100.00
11888;BME280;6003;42.756;23.130;2023-05-21T01:54:52;155442.13;;;11.77;100.00
11888;BME280;6003;42.756;23.130;2023-05-21T01:57:21;155463.31;;;11.85;100.00
11888;BME280;6003;42.756;23.130;2023-05-21T01:59:48;155480.59;;;11.91;100.00
11888;BME280;6003;42.756;23.130;2023-05-21T02:02:15;155495.16;;;11.97;100.00
11888;BME280;6003;42.756;23.130;2023-05-21T02:04:41;155508.34;;;12.02;100.00
11888;BME280;6003;42.756;23.130;2023-05-21T02:07:10;155509.72;;;12.03;100.00
11888;BME280;6003;42.756;23.130;2023-05-21T02:09:38;155520.28;;;12.07;100.00
11888;BME280;6003;42.756;23.130;2023-05-21T02:12:11;155520.28;;;12.07;100.00
11888;BME280;6003;42.756;23.130;2023-05-21T02:14:39;155505.72;;;12.01;100.00
11888;BME280;6003;42.756;23.130;2023-05-21T02:17:06;155487.22;;;11.94;100.00
11888;BME280;6003;42.756;23.130;2023-05-21T02:19:33;155477.91;;;11.90;100.00
11888;BME280;6003;42.756;23.130;2023-05-21T02:22:00;155473.97;;;11.89;100.00
11888;BME280;6003;42.756;23.130;2023-05-21T02:24:27;155451.44;;;11.80;100.00
11888;BME280;6003;42.756;23.130;2023-05-21T02:26:53;155417.03;;;11.67;100.00
11888;BME280;6003;42.756;23.130;2023-05-21T02:29:20;155414.38;;;11.66;100.00
11888;BME280;6003;42.756;23.130;2023-05-21T02:31:48;155402.47;;;11.61;100.00
11888;BME280;6003;42.756;23.130;2023-05-21T02:34:15;155387.91;;;11.56;100.00
11888;BME280;6003;42.756;23.130;2023-05-21T02:36:44;155368.09;;;11.48;100.00
11888;BME280;6003;42.756;23.130;2023-05-21T02:39:12;155356.19;;;11.43;100.00
11888;BME280;6003;42.756;23.130;2023-05-21T02:41:39;155346.94;;;11.40;100.00
11888;BME280;6003;42.756;23.130;2023-05-21T02:44:06;155332.38;;;11.34;100.00
11888;BME280;6003;42.756;23.130;2023-05-21T02:46:33;155319.16;;;11.29;100.00
11888;BME280;6003;42.756;23.130;2023-05-21T02:49:01;155307.22;;;11.24;100.00
11888;BME280;6003;42.756;23.130;2023-05-21T02:51:28;155294.03;;;11.19;100.00
11888;BME280;6003;42.756;23.130;2023-05-21T02:53:55;155291.34;;;11.18;100.00
11888;BME280;6003;42.756;23.130;2023-05-21T02:56:21;155299.28;;;11.21;100.00
11888;BME280;6003;42.756;23.130;2023-05-21T02:58:49;155300.59;;;11.22;100.00
11888;BME280;6003;42.756;23.130;2023-05-21T03:01:17;155305.91;;;11.24;100.00
11888;BME280;6003;42.756;23.130;2023-05-21T03:03:43;155295.34;;;11.20;100.00
11888;BME280;6003;42.756;23.130;2023-05-21T03:06:12;155299.28;;;11.21;100.00
11888;BME280;6003;42.756;23.130;2023-05-21T03:08:38;155288.72;;;11.17;100.00
11888;BME280;6003;42.756;23.130;2023-05-21T03:11:05;155312.53;;;11.26;100.00
11888;BME280;6003;42.756;23.130;2023-05-21T03:13:32;155315.16;;;11.27;100.00
11888;BME280;6003;42.756;23.130;2023-05-21T03:15:59;155307.22;;;11.24;100.00
11888;BME280;6003;42.756;23.130;2023-05-21T03:18:25;155309.91;;;11.25;100.00
11888;BME280;6003;42.756;23.130;2023-05-21T03:20:53;155303.28;;;11.23;100.00
11888;BME280;6003;42.756;23.130;2023-05-21T03:23:21;155304.59;;;11.23;100.00
11888;BME280;6003;42.756;23.130;2023-05-21T03:25:48;155304.59;;;11.23;100.00
11888;BME280;6003;42.756;23.130;2023-05-21T03:28:15;155309.91;;;11.25;100.00
11888;BME280;6003;42.756;23.130;2023-05-21T03:30:42;155320.47;;;11.29;100.00
11888;BME280;6003;42.756;23.130;2023-05-21T03:33:11;155333.69;;;11.35;100.00
11888;BME280;6003;42.756;23.130;2023-05-21T03:35:38;155350.88;;;11.41;100.00
11888;BME280;6003;42.756;23.130;2023-05-21T03:38:05;155360.13;;;11.45;100.00
11888;BME280;6003;42.756;23.130;2023-05-21T03:40:33;155378.66;;;11.52;100.00
11888;BME280;6003;42.756;23.130;2023-05-21T03:43:00;155398.53;;;11.60;100.00
11888;BME280;6003;42.756;23.130;2023-05-21T03:45:27;155418.34;;;11.67;100.00
11888;BME280;6003;42.756;23.130;2023-05-21T03:47:53;155444.81;;;11.78;100.00
11888;BME280;6003;42.756;23.130;2023-05-21T03:50:20;155466.03;;;11.86;100.00
11888;BME280;6003;42.756;23.130;2023-05-21T03:52:49;155489.84;;;11.95;100.00
11888;BME280;6003;42.756;23.130;2023-05-21T03:55:16;155518.97;;;12.06;100.00
11888;BME280;6003;42.756;23.130;2023-05-21T03:57:45;155536.16;;;12.13;100.00
11888;BME280;6003;42.756;23.130;2023-05-21T04:00:12;155561.28;;;12.23;100.00
11888;BME280;6003;42.756;23.130;2023-05-21T04:02:39;155582.47;;;12.31;100.00
11888;BME280;6003;42.756;23.130;2023-05-21T04:05:06;155610.28;;;12.41;100.00
11888;BME280;6003;42.756;23.130;2023-05-21T04:07:33;155644.72;;;12.55;100.00
11888;BME280;6003;42.756;23.130;2023-05-21T04:10:03;155669.84;;;12.64;100.00
11888;BME280;6003;42.756;23.130;2023-05-21T04:12:30;155692.34;;;12.73;100.00
11888;BME280;6003;42.756;23.130;2023-05-21T04:14:58;155704.28;;;12.78;100.00
11888;BME280;6003;42.756;23.130;2023-05-21T04:17:26;155717.50;;;12.83;100.00
11888;BME280;6003;42.756;23.130;2023-05-21T04:19:53;155736.06;;;12.90;100.00
11888;BME280;6003;42.756;23.130;2023-05-21T04:22:20;155741.38;;;12.92;100.00
11888;BME280;6003;42.756;23.130;2023-05-21T04:24:47;155754.56;;;12.97;100.00
11888;BME280;6003;42.756;23.130;2023-05-21T04:27:14;155783.72;;;13.08;100.00
11888;BME280;6003;42.756;23.130;2023-05-21T04:29:41;155812.84;;;13.20;100.00
11888;BME280;6003;42.756;23.130;2023-05-21T04:32:09;155827.47;;;13.25;100.00
11888;BME280;6003;42.756;23.130;2023-05-21T04:34:39;155828.78;;;13.26;100.00
11888;BME280;6003;42.756;23.130;2023-05-21T04:37:06;155842.03;;;13.31;100.00
11888;BME280;6003;42.756;23.130;2023-05-21T04:39:33;155844.69;;;13.32;100.00
11888;BME280;6003;42.756;23.130;2023-05-21T04:42:00;155839.41;;;13.30;100.00
11888;BME280;6003;42.756;23.130;2023-05-21T04:44:27;155844.69;;;13.32;100.00
11888;BME280;6003;42.756;23.130;2023-05-21T04:46:54;155917.56;;;13.60;100.00
11888;BME280;6003;42.756;23.130;2023-05-21T04:49:23;155990.44;;;13.88;100.00
11888;BME280;6003;42.756;23.130;2023-05-21T04:51:49;156055.41;;;14.13;100.00
11888;BME280;6003;42.756;23.130;2023-05-21T04:54:16;156107.09;;;14.33;100.00
11888;BME280;6003;42.756;23.130;2023-05-21T04:56:43;156162.81;;;14.55;100.00
11888;BME280;6003;42.756;23.130;2023-05-21T04:59:11;156207.88;;;14.72;100.00
11888;BME280;6003;42.756;23.130;2023-05-21T05:01:38;156221.16;;;14.77;100.00
11888;BME280;6003;42.756;23.130;2023-05-21T05:04:05;156268.88;;;14.96;100.00
11888;BME280;6003;42.756;23.130;2023-05-21T05:06:34;156324.59;;;15.17;100.00
11888;BME280;6003;42.756;23.130;2023-05-21T05:09:00;156396.22;;;15.45;100.00
11888;BME280;6003;42.756;23.130;2023-05-21T05:11:29;156438.69;;;15.61;100.00
11888;BME280;6003;42.756;23.130;2023-05-21T05:13:55;156438.69;;;15.61;100.00
11888;BME280;6003;42.756;23.130;2023-05-21T05:16:22;156438.69;;;15.61;99.29
11888;BME280;6003;42.756;23.130;2023-05-21T05:18:50;156422.78;;;15.55;98.92
11888;BME280;6003;42.756;23.130;2023-05-21T05:21:17;156412.19;;;15.51;99.17
11888;BME280;6003;42.756;23.130;2023-05-21T05:23:45;156388.25;;;15.42;97.94
11888;BME280;6003;42.756;23.130;2023-05-21T05:26:12;156401.53;;;15.47;100.00
11888;BME280;6003;42.756;23.130;2023-05-21T05:28:39;156438.69;;;15.61;99.92
11888;BME280;6003;42.756;23.130;2023-05-21T05:31:06;156505.09;;;15.87;98.52
11888;BME280;6003;42.756;23.130;2023-05-21T05:33:33;156826.44;;;17.10;98.21
11888;BME280;6003;42.756;23.130;2023-05-21T05:35:59;156959.31;;;17.62;87.22
11888;BME280;6003;42.756;23.130;2023-05-21T05:38:26;156924.75;;;17.48;87.44
11888;BME280;6003;42.756;23.130;2023-05-21T05:40:54;156895.53;;;17.37;90.65
11888;BME280;6003;42.756;23.130;2023-05-21T05:43:24;156786.63;;;16.95;88.52
11888;BME280;6003;42.756;23.130;2023-05-21T05:45:50;156935.41;;;17.52;87.61
11888;BME280;6003;42.756;23.130;2023-05-21T05:48:17;157102.91;;;18.17;86.77
11888;BME280;6003;42.756;23.130;2023-05-21T05:50:44;157116.22;;;18.22;86.98
11888;BME280;6003;42.756;23.130;2023-05-21T05:53:11;157118.84;;;18.23;86.60
11888;BME280;6003;42.756;23.130;2023-05-21T05:55:39;157092.28;;;18.13;86.38
11888;BME280;6003;42.756;23.130;2023-05-21T05:58:07;157068.31;;;18.03;87.56
11888;BME280;6003;42.756;23.130;2023-05-21T06:00:34;157084.31;;;18.10;89.13
11888;BME280;6003;42.756;23.130;2023-05-21T06:03:01;157089.59;;;18.12;86.67
11888;BME280;6003;42.756;23.130;2023-05-21T06:05:27;157157.41;;;18.38;84.15
11888;BME280;6003;42.756;23.130;2023-05-21T06:07:54;157277.13;;;18.84;84.63
11888;BME280;6003;42.756;23.130;2023-05-21T06:10:21;157424.78;;;19.41;80.36
11888;BME280;6003;42.756;23.130;2023-05-21T06:12:48;157372.91;;;19.21;79.60
11888;BME280;6003;42.756;23.130;2023-05-21T06:15:16;157285.09;;;18.87;80.14
11888;BME280;6003;42.756;23.130;2023-05-21T06:17:43;157356.94;;;19.14;80.00
11888;BME280;6003;42.756;23.130;2023-05-21T06:20:11;157496.72;;;19.68;81.70
11888;BME280;6003;42.756;23.130;2023-05-21T06:22:38;157592.50;;;20.05;73.30
11888;BME280;6003;42.756;23.130;2023-05-21T06:25:06;157555.22;;;19.91;77.91
11888;BME280;6003;42.756;23.130;2023-05-21T06:27:33;157762.97;;;20.70;72.22
11888;BME280;6003;42.756;23.130;2023-05-21T06:30:00;157707.03;;;20.49;73.53
11888;BME280;6003;42.756;23.130;2023-05-21T06:32:28;157693.72;;;20.44;74.95
11888;BME280;6003;42.756;23.130;2023-05-21T06:34:55;157842.91;;;21.01;72.78
11888;BME280;6003;42.756;23.130;2023-05-21T06:37:21;157792.28;;;20.82;72.87
11888;BME280;6003;42.756;23.130;2023-05-21T06:39:48;157850.91;;;21.04;71.63
11888;BME280;6003;42.756;23.130;2023-05-21T06:42:15;157842.91;;;21.01;68.67
11888;BME280;6003;42.756;23.130;2023-05-21T06:44:42;157850.91;;;21.04;70.37
11888;BME280;6003;42.756;23.130;2023-05-21T06:47:09;157970.84;;;21.50;71.77
11888;BME280;6003;42.756;23.130;2023-05-21T06:49:37;157984.19;;;21.55;72.90
11888;BME280;6003;42.756;23.130;2023-05-21T06:52:04;158090.78;;;21.96;72.13
11888;BME280;6003;42.756;23.130;2023-05-21T06:54:31;157864.22;;;21.09;69.39
11888;BME280;6003;42.756;23.130;2023-05-21T06:56:59;157804.28;;;20.86;69.95
11888;BME280;6003;42.756;23.130;2023-05-21T06:59:26;157837.56;;;20.99;70.43
11888;BME280;6003;42.756;23.130;2023-05-21T07:01:53;157841.59;;;21.01;68.56
11888;BME280;6003;42.756;23.130;2023-05-21T07:04:19;157920.16;;;21.31;68.72
11888;BME280;6003;42.756;23.130;2023-05-21T07:06:47;157781.66;;;20.78;69.33
11888;BME280;6003;42.756;23.130;2023-05-21T07:09:16;157842.91;;;21.01;67.57
11888;BME280;6003;42.756;23.130;2023-05-21T07:11:43;157715.00;;;20.52;68.29
11888;BME280;6003;42.756;23.130;2023-05-21T07:14:10;157677.75;;;20.38;68.63
11888;BME280;6003;42.756;23.130;2023-05-21T07:16:37;157691.06;;;20.43;68.19
11888;BME280;6003;42.756;23.130;2023-05-21T07:19:05;157752.34;;;20.66;66.98
11888;BME280;6003;42.756;23.130;2023-05-21T07:21:31;157822.91;;;20.93;66.02
11888;BME280;6003;42.756;23.130;2023-05-21T07:24:00;157900.16;;;21.23;66.93
11888;BME280;6003;42.756;23.130;2023-05-21T07:26:27;157917.50;;;21.30;65.44
11888;BME280;6003;42.756;23.130;2023-05-21T07:28:53;157917.50;;;21.30;64.20
11888;BME280;6003;42.756;23.130;2023-05-21T07:31:20;157904.19;;;21.25;67.02
11888;BME280;6003;42.756;23.130;2023-05-21T07:33:47;157954.88;;;21.44;66.15
11888;BME280;6003;42.756;23.130;2023-05-21T07:36:14;157872.22;;;21.12;61.38
11888;BME280;6003;42.756;23.130;2023-05-21T07:38:41;157765.69;;;20.71;65.01
11888;BME280;6003;42.756;23.130;2023-05-21T07:41:10;157640.47;;;20.23;66.71
11888;BME280;6003;42.756;23.130;2023-05-21T07:43:37;157748.34;;;20.65;63.40
11888;BME280;6003;42.756;23.130;2023-05-21T07:46:04;157721.72;;;20.55;63.03
11888;BME280;6003;42.756;23.130;2023-05-21T07:48:30;157723.06;;;20.55;65.23
11888;BME280;6003;42.756;23.130;2023-05-21T07:50:58;157790.97;;;20.81;61.91
11888;BME280;6003;42.756;23.130;2023-05-21T07:53:24;157832.22;;;20.97;63.11
11888;BME280;6003;42.756;23.130;2023-05-21T07:55:51;157889.53;;;21.19;64.53
11888;BME280;6003;42.756;23.130;2023-05-21T07:58:19;158029.50;;;21.73;63.35
11888;BME280;6003;42.756;23.130;2023-05-21T08:00:47;158032.13;;;21.74;59.89
11888;BME280;6003;42.756;23.130;2023-05-21T08:03:16;157990.84;;;21.58;61.49
11888;BME280;6003;42.756;23.130;2023-05-21T08:05:44;157954.88;;;21.44;56.94
11888;BME280;6003;42.756;23.130;2023-05-21T08:08:13;157880.22;;;21.15;54.87
11888;BME280;6003;42.756;23.130;2023-05-21T08:10:40;157728.41;;;20.57;58.11
11888;BME280;6003;42.756;23.130;2023-05-21T08:13:07;157757.63;;;20.68;57.93
11888;BME280;6003;42.756;23.130;2023-05-21T08:15:35;157777.63;;;20.76;56.72
11888;BME280;6003;42.756;23.130;2023-05-21T08:18:02;157778.97;;;20.77;57.44
11888;BME280;6003;42.756;23.130;2023-05-21T08:20:29;157813.59;;;20.90;59.60
11888;BME280;6003;42.756;23.130;2023-05-21T08:22:57;157805.63;;;20.87;60.99
11888;BME280;6003;42.756;23.130;2023-05-21T08:25:24;157708.34;;;20.49;57.89
11888;BME280;6003;42.756;23.130;2023-05-21T08:27:51;157664.41;;;20.33;58.70
11888;BME280;6003;42.756;23.130;2023-05-21T08:30:18;157685.72;;;20.41;58.44
11888;BME280;6003;42.756;23.130;2023-05-21T08:32:46;157716.38;;;20.53;59.64
11888;BME280;6003;42.756;23.130;2023-05-21T08:35:13;157821.59;;;20.93;57.73
11888;BME280;6003;42.756;23.130;2023-05-21T08:37:40;157817.56;;;20.91;55.88
11888;BME280;6003;42.756;23.130;2023-05-21T08:40:08;157832.22;;;20.97;55.58
11888;BME280;6003;42.756;23.130;2023-05-21T08:42:39;157856.25;;;21.06;57.80
11888;BME280;6003;42.756;23.130;2023-05-21T08:45:10;157876.19;;;21.14;55.91
11888;BME280;6003;42.756;23.130;2023-05-21T08:47:40;157945.50;;;21.40;56.07
11888;BME280;6003;42.756;23.130;2023-05-21T08:50:11;158030.81;;;21.73;53.98
11888;BME280;6003;42.756;23.130;2023-05-21T08:52:38;158032.13;;;21.74;52.82
11888;BME280;6003;42.756;23.130;2023-05-21T08:55:06;158036.16;;;21.75;54.04
11888;BME280;6003;42.756;23.130;2023-05-21T08:57:33;158021.50;;;21.70;52.49
11888;BME280;6003;42.756;23.130;2023-05-21T09:00:00;157982.81;;;21.55;51.39
11888;BME280;6003;42.756;23.130;2023-05-21T09:02:32;157988.16;;;21.57;51.21
11888;BME280;6003;42.756;23.130;2023-05-21T09:05:00;158096.13;;;21.98;52.42
11888;BME280;6003;42.756;23.130;2023-05-21T09:07:30;158106.78;;;22.02;50.50
11888;BME280;6003;42.756;23.130;2023-05-21T09:10:02;158162.78;;;22.24;51.83
11888;BME280;6003;42.756;23.130;2023-05-21T09:12:30;158006.84;;;21.64;48.28
11888;BME280;6003;42.756;23.130;2023-05-21T09:14:58;157885.50;;;21.17;47.73
11888;BME280;6003;42.756;23.130;2023-05-21T09:17:26;157960.16;;;21.46;48.96
11888;BME280;6003;42.756;23.130;2023-05-21T09:20:07;157870.91;;;21.12;47.20
11888;BME280;6003;42.756;23.130;2023-05-21T09:22:39;157984.19;;;21.55;48.69
11888;BME280;6003;42.756;23.130;2023-05-21T09:25:07;157912.16;;;21.28;47.34
11888;BME280;6003;42.756;23.130;2023-05-21T09:27:34;158008.16;;;21.65;49.96
11888;BME280;6003;42.756;23.130;2023-05-21T09:30:02;157994.81;;;21.59;47.84
11888;BME280;6003;42.756;23.130;2023-05-21T09:32:29;157965.50;;;21.48;49.52
11888;BME280;6003;42.756;23.130;2023-05-21T09:34:56;157978.84;;;21.53;49.49
11888;BME280;6003;42.756;23.130;2023-05-21T09:37:23;157893.53;;;21.21;50.37
11888;BME280;6003;42.756;23.130;2023-05-21T09:39:53;157757.63;;;20.68;49.01
11888;BME280;6003;42.756;23.130;2023-05-21T09:42:20;157870.91;;;21.12;51.16
11888;BME280;6003;42.756;23.130;2023-05-21T09:44:47;157969.53;;;21.50;51.36
11888;BME280;6003;42.756;23.130;2023-05-21T09:47:18;157864.22;;;21.09;50.64
11888;BME280;6003;42.756;23.130;2023-05-21T09:49:48;157789.66;;;20.81;48.72
11888;BME280;6003;42.756;23.130;2023-05-21T09:52:22;157713.69;;;20.51;51.31
11888;BME280;6003;42.756;23.130;2023-05-21T09:54:50;157700.38;;;20.46;50.70
11888;BME280;6003;42.756;23.130;2023-05-21T09:57:24;157651.09;;;20.27;50.58
11888;BME280;6003;42.756;23.130;2023-05-21T09:59:51;157733.69;;;20.59;52.36
11888;BME280;6003;42.756;23.130;2023-05-21T10:02:20;157801.59;;;20.85;51.60
11888;BME280;6003;42.756;23.130;2023-05-21T10:04:47;157874.88;;;21.13;51.48
11888;BME280;6003;42.756;23.130;2023-05-21T10:07:16;157723.06;;;20.55;49.98
11888;BME280;6003;42.756;23.130;2023-05-21T10:09:45;157667.06;;;20.34;51.71
11888;BME280;6003;42.756;23.130;2023-05-21T10:12:14;157648.44;;;20.26;51.38
11888;BME280;6003;42.756;23.130;2023-05-21T10:14:45;157637.75;;;20.22;53.03
11888;BME280;6003;42.756;23.130;2023-05-21T10:17:16;157664.41;;;20.33;55.99
11888;BME280;6003;42.756;23.130;2023-05-21T10:19:43;157576.53;;;19.99;54.58
11888;BME280;6003;42.756;23.130;2023-05-21T10:22:14;157603.19;;;20.09;54.96
11888;BME280;6003;42.756;23.130;2023-05-21T10:24:42;157624.50;;;20.17;55.54
11888;BME280;6003;42.756;23.130;2023-05-21T10:27:10;157651.09;;;20.27;55.74
11888;BME280;6003;42.756;23.130;2023-05-21T10:29:40;157672.41;;;20.36;56.42
11888;BME280;6003;42.756;23.130;2023-05-21T10:32:11;157731.03;;;20.58;55.82
11888;BME280;6003;42.756;23.130;2023-05-21T10:34:38;157832.22;;;20.97;57.49
11888;BME280;6003;42.756;23.130;2023-05-21T10:37:07;157925.50;;;21.33;52.14
11888;BME280;6003;42.756;23.130;2023-05-21T10:39:35;157896.19;;;21.22;52.23
11888;BME280;6003;42.756;23.130;2023-05-21T10:42:11;157854.88;;;21.06;54.57
11888;BME280;6003;42.756;23.130;2023-05-21T10:47:57;157753.69;;;20.67;52.10
11888;BME280;6003;42.756;23.130;2023-05-21T10:50:49;157786.94;;;20.80;54.94
11888;BME280;6003;42.756;23.130;2023-05-21T10:53:23;157821.59;;;20.93;54.74
11888;BME280;6003;42.756;23.130;2023-05-21T10:56:02;157877.50;;;21.14;57.38
11888;BME280;6003;42.756;23.130;2023-05-21T10:59:06;157930.84;;;21.35;54.14
11888;BME280;6003;42.756;23.130;2023-05-21T11:01:37;157890.84;;;21.19;54.85
11888;BME280;6003;42.756;23.130;2023-05-21T11:04:07;157880.22;;;21.15;53.35
11888;BME280;6003;42.756;23.130;2023-05-21T11:06:34;157864.22;;;21.09;54.22
11888;BME280;6003;42.756;23.130;2023-05-21T11:09:02;157868.19;;;21.11;55.89
11888;BME280;6003;42.756;23.130;2023-05-21T11:11:41;157792.28;;;20.82;53.84
11888;BME280;6003;42.756;23.130;2023-05-21T11:14:27;157781.66;;;20.78;56.35
11888;BME280;6003;42.756;23.130;2023-05-21T11:16:56;157764.31;;;20.71;54.64
11888;BME280;6003;42.756;23.130;2023-05-21T11:19:33;157731.03;;;20.58;54.68
11888;BME280;6003;42.756;23.130;2023-05-21T11:22:04;157717.72;;;20.53;54.13
11888;BME280;6003;42.756;23.130;2023-05-21T11:24:31;157711.00;;;20.50;55.42
11888;BME280;6003;42.756;23.130;2023-05-21T11:27:00;157656.41;;;20.29;54.30
11888;BME280;6003;42.756;23.130;2023-05-21T11:29:44;157656.41;;;20.29;53.83
11888;BME280;6003;42.756;23.130;2023-05-21T11:32:14;157640.47;;;20.23;56.71
11888;BME280;6003;42.756;23.130;2023-05-21T11:34:47;157659.06;;;20.31;57.33
11888;BME280;6003;42.756;23.130;2023-05-21T11:37:24;157616.50;;;20.14;55.52
11888;BME280;6003;42.756;23.130;2023-05-21T11:39:54;157648.44;;;20.26;57.91
11888;BME280;6003;42.756;23.130;2023-05-21T11:42:29;157661.75;;;20.32;58.68
11888;BME280;6003;42.756;23.130;2023-05-21T11:44:56;157608.53;;;20.11;58.90
11888;BME280;6003;42.756;23.130;2023-05-21T11:47:24;157668.44;;;20.34;57.33
11888;BME280;6003;42.756;23.130;2023-05-21T11:49:53;157802.91;;;20.86;60.82
11888;BME280;6003;42.756;23.130;2023-05-21T11:52:22;157857.56;;;21.07;51.29
11888;BME280;6003;42.756;23.130;2023-05-21T11:54:50;157922.81;;;21.32;52.79
11888;BME280;6003;42.756;23.130;2023-05-21T11:57:20;157862.84;;;21.09;53.55
11888;BME280;6003;42.756;23.130;2023-05-21T11:59:48;157801.59;;;20.85;54.42
11888;BME280;6003;42.756;23.130;2023-05-21T12:02:17;157752.34;;;20.66;54.85
11888;BME280;6003;42.756;23.130;2023-05-21T12:04:45;157669.75;;;20.35;54.24
11888;BME280;6003;42.756;23.130;2023-05-21T12:07:15;157728.41;;;20.57;55.58
11888;BME280;6003;42.756;23.130;2023-05-21T12:09:43;157767.00;;;20.72;57.64
11888;BME280;6003;42.756;23.130;2023-05-21T12:12:12;157789.66;;;20.81;55.00
11888;BME280;6003;42.756;23.130;2023-05-21T12:14:42;157778.97;;;20.77;55.39
11888;BME280;6003;42.756;23.130;2023-05-21T12:17:09;157744.38;;;20.63;55.14
11888;BME280;6003;42.756;23.130;2023-05-21T12:19:38;157704.34;;;20.48;55.40
11888;BME280;6003;42.756;23.130;2023-05-21T12:22:09;157613.81;;;20.13;55.93
11888;BME280;6003;42.756;23.130;2023-05-21T12:24:37;157557.94;;;19.92;56.02
11888;BME280;6003;42.756;23.130;2023-05-21T12:27:06;157544.59;;;19.87;56.17
11888;BME280;6003;42.756;23.130;2023-05-21T12:29:35;157484.66;;;19.64;57.90
11888;BME280;6003;42.756;23.130;2023-05-21T12:32:04;157480.66;;;19.62;59.49
11888;BME280;6003;42.756;23.130;2023-05-21T12:34:36;157454.06;;;19.52;58.71
11888;BME280;6003;42.756;23.130;2023-05-21T12:37:03;157475.38;;;19.60;59.65
11888;BME280;6003;42.756;23.130;2023-05-21T12:39:31;157467.38;;;19.57;57.40
11888;BME280;6003;42.756;23.130;2023-05-21T12:42:00;157459.41;;;19.54;57.24
11888;BME280;6003;42.756;23.130;2023-05-21T12:44:29;157495.34;;;19.68;57.88
11888;BME280;6003;42.756;23.130;2023-05-21T12:46:56;157535.31;;;19.83;58.76
11888;BME280;6003;42.756;23.130;2023-05-21T12:49:31;157531.28;;;19.81;57.52
11888;BME280;6003;42.756;23.130;2023-05-21T12:52:04;157494.03;;;19.67;58.85
11888;BME280;6003;42.756;23.130;2023-05-21T12:54:33;157459.41;;;19.54;57.97